createdAt,value
2023-11-07T00:01:35.117Z,85.41
2023-11-07T00:04:03.936Z,85.11
2023-11-07T00:06:31.407Z,85.21
2023-11-07T00:08:58.760Z,85.49
2023-11-07T00:11:26.194Z,85.43
2023-11-07T00:13:53.404Z,85.68
2023-11-07T00:16:20.669Z,86.05
2023-11-07T00:18:48.681Z,86.36
2023-11-07T00:21:16.007Z,86.31
2023-11-07T00:23:43.276Z,86.55
2023-11-07T00:26:10.894Z,86.92
2023-11-07T00:28:40.085Z,87.43
2023-11-07T00:31:07.768Z,87.28
2023-11-07T00:33:35.192Z,87.96
2023-11-07T00:36:02.639Z,88.01
2023-11-07T00:38:30.611Z,88.44
2023-11-07T00:40:58.164Z,88.60
2023-11-07T00:43:25.496Z,88.43
2023-11-07T00:45:54.524Z,88.89
2023-11-07T00:48:21.961Z,88.87
2023-11-07T00:50:49.489Z,88.98
2023-11-07T00:53:16.876Z,89.35
2023-11-07T00:55:44.215Z,89.36
2023-11-07T00:58:11.422Z,89.44
2023-11-07T01:00:38.721Z,89.44
2023-11-07T01:03:06.076Z,89.48
2023-11-07T01:05:34.069Z,89.44
2023-11-07T01:08:02.262Z,89.29
2023-11-07T01:10:29.649Z,90.35
2023-11-07T01:12:57.288Z,90.65
2023-11-07T01:15:24.645Z,90.86
2023-11-07T01:17:52.129Z,91.15
2023-11-07T01:20:20.247Z,91.15
2023-11-07T01:22:47.645Z,91.02
2023-11-07T01:25:14.884Z,91.17
2023-11-07T01:27:42.413Z,91.40
2023-11-07T01:30:10.570Z,91.75
2023-11-07T01:32:38.906Z,91.60
2023-11-07T01:35:06.671Z,92.21
2023-11-07T01:37:34.065Z,92.24
2023-11-07T01:40:01.277Z,92.34
2023-11-07T01:42:28.770Z,92.62
2023-11-07T01:44:55.983Z,92.69
2023-11-07T01:47:27.102Z,93.00
2023-11-07T01:49:54.946Z,93.04
2023-11-07T01:52:22.592Z,93.80
2023-11-07T01:54:54.982Z,94.06
2023-11-07T01:57:23.012Z,94.17
2023-11-07T01:59:51.130Z,93.95
2023-11-07T02:02:20.831Z,94.44
2023-11-07T02:04:49.049Z,94.96
2023-11-07T02:07:17.530Z,94.95
2023-11-07T02:09:48.499Z,95.52
2023-11-07T02:12:15.829Z,95.50
2023-11-07T02:14:43.296Z,95.80
2023-11-07T02:17:10.744Z,96.28
2023-11-07T02:19:38.026Z,96.25
2023-11-07T02:22:09.825Z,96.96
2023-11-07T02:24:37.290Z,96.82
2023-11-07T02:27:05.386Z,97.02
2023-11-07T02:29:33.356Z,97.18
2023-11-07T02:32:00.747Z,97.32
2023-11-07T02:34:28.158Z,97.55
2023-11-07T02:36:55.546Z,97.50
2023-11-07T02:39:22.832Z,97.83
2023-11-07T02:41:50.169Z,98.21
2023-11-07T02:44:17.719Z,98.27
2023-11-07T02:46:47.095Z,98.15
2023-11-07T02:49:15.172Z,98.66
2023-11-07T02:51:42.484Z,98.15
2023-11-07T02:54:09.889Z,98.67
2023-11-07T02:56:37.190Z,98.79
2023-11-07T02:59:05.419Z,98.89
2023-11-07T03:01:32.756Z,98.74
2023-11-07T03:04:00.171Z,99.28
2023-11-07T03:06:27.725Z,99.21
2023-11-07T03:08:55.012Z,99.50
2023-11-07T03:11:22.534Z,99.15
2023-11-07T03:13:49.887Z,99.75
2023-11-07T03:16:17.260Z,99.57
2023-11-07T03:18:44.908Z,99.63
2023-11-07T03:21:12.703Z,99.38
2023-11-07T03:23:40.086Z,99.60
2023-11-07T03:26:08.872Z,99.65
2023-11-07T03:28:36.152Z,99.55
2023-11-07T03:31:03.454Z,99.81
2023-11-07T03:33:31.291Z,100.00
2023-11-07T03:35:58.626Z,100.00
2023-11-07T03:38:26.134Z,99.94
2023-11-07T03:40:53.311Z,100.00
2023-11-07T03:43:21.993Z,100.00
2023-11-07T03:45:49.502Z,100.00
2023-11-07T03:48:16.768Z,100.00
2023-11-07T03:50:44.707Z,100.00
2023-11-07T03:53:12.308Z,100.00
2023-11-07T03:55:39.704Z,100.00
2023-11-07T03:58:06.974Z,100.00
2023-11-07T04:00:34.217Z,100.00
2023-11-07T04:03:01.891Z,100.00
2023-11-07T04:05:29.600Z,100.00
2023-11-07T04:07:57.968Z,100.00
2023-11-07T04:10:25.273Z,100.00
2023-11-07T04:12:52.905Z,100.00
2023-11-07T04:15:22.243Z,100.00
2023-11-07T04:17:52.356Z,100.00
2023-11-07T04:20:19.632Z,100.00
2023-11-07T04:22:48.556Z,100.00
2023-11-07T04:25:16.701Z,100.00
2023-11-07T04:27:46.283Z,100.00
2023-11-07T04:30:14.932Z,100.00
2023-11-07T04:32:42.566Z,100.00
2023-11-07T04:35:13.455Z,100.00
2023-11-07T04:37:41.258Z,100.00
2023-11-07T04:40:08.967Z,100.00
2023-11-07T04:42:36.401Z,100.00
2023-11-07T04:45:03.976Z,100.00
2023-11-07T04:47:31.422Z,100.00
2023-11-07T04:50:00.582Z,100.00
2023-11-07T04:52:27.899Z,100.00
2023-11-07T04:54:55.263Z,100.00
2023-11-07T04:57:24.141Z,100.00
2023-11-07T04:59:52.116Z,100.00
2023-11-07T05:02:19.795Z,100.00
2023-11-07T05:04:47.594Z,100.00
2023-11-07T05:07:17.441Z,100.00
2023-11-07T05:09:44.757Z,100.00
2023-11-07T05:12:15.452Z,100.00
2023-11-07T05:14:42.973Z,100.00
2023-11-07T05:17:10.321Z,100.00
2023-11-07T05:19:38.060Z,100.00
2023-11-07T05:22:05.428Z,100.00
2023-11-07T05:24:32.683Z,100.00
2023-11-07T05:27:01.908Z,100.00
2023-11-07T05:29:29.920Z,100.00
2023-11-07T05:31:57.328Z,100.00
2023-11-07T05:34:24.586Z,100.00
2023-11-07T05:36:52.715Z,100.00
2023-11-07T05:39:19.876Z,100.00
2023-11-07T05:41:47.361Z,100.00
2023-11-07T05:44:17.267Z,100.00
2023-11-07T05:46:44.749Z,100.00
2023-11-07T05:49:12.353Z,100.00
2023-11-07T05:51:39.878Z,100.00
2023-11-07T05:54:09.071Z,100.00
2023-11-07T05:56:37.467Z,100.00
2023-11-07T05:59:05.290Z,100.00
2023-11-07T06:01:32.656Z,100.00
2023-11-07T06:04:00.068Z,100.00
2023-11-07T06:06:27.470Z,100.00
2023-11-07T06:08:55.091Z,100.00
2023-11-07T06:11:22.709Z,100.00
2023-11-07T06:13:49.978Z,99.54
2023-11-07T06:16:17.372Z,97.48
2023-11-07T06:18:45.539Z,96.29
2023-11-07T06:21:13.234Z,95.72
2023-11-07T06:23:41.999Z,94.63
2023-11-07T06:26:09.598Z,93.39
2023-11-07T06:28:37.991Z,91.92
2023-11-07T06:31:05.654Z,92.26
2023-11-07T06:33:33.243Z,92.04
2023-11-07T06:36:00.578Z,91.06
2023-11-07T06:38:29.249Z,90.24
2023-11-07T06:40:57.265Z,89.39
2023-11-07T06:43:24.602Z,89.22
2023-11-07T06:45:51.882Z,88.16
2023-11-07T06:48:19.316Z,87.37
2023-11-07T06:50:47.635Z,86.79
2023-11-07T06:53:14.879Z,85.85
2023-11-07T06:55:42.829Z,85.50
2023-11-07T06:58:10.681Z,85.86
2023-11-07T07:00:40.258Z,85.46
2023-11-07T07:03:08.126Z,83.98
2023-11-07T07:05:35.705Z,84.99
2023-11-07T07:08:03.156Z,84.02
2023-11-07T07:10:30.497Z,83.49
2023-11-07T07:12:57.820Z,83.02
2023-11-07T07:15:25.192Z,83.63
2023-11-07T07:17:52.847Z,84.28
2023-11-07T07:20:20.400Z,83.74
2023-11-07T07:22:48.475Z,83.76
2023-11-07T07:25:22.152Z,84.28
2023-11-07T07:27:50.111Z,84.09
2023-11-07T07:30:23.096Z,83.73
2023-11-07T07:32:52.767Z,83.31
2023-11-07T07:35:22.487Z,83.09
2023-11-07T07:37:53.533Z,83.19
2023-11-07T07:40:30.890Z,84.45
2023-11-07T07:43:10.505Z,83.58
2023-11-07T07:45:45.518Z,84.70
2023-11-07T07:48:13.482Z,83.85
2023-11-07T07:50:43.586Z,84.53
2023-11-07T07:53:16.691Z,84.11
2023-11-07T07:55:45.569Z,82.82
2023-11-07T07:58:19.963Z,82.63
2023-11-07T08:00:51.377Z,81.90
2023-11-07T08:03:21.465Z,80.78
2023-11-07T08:05:49.186Z,79.85
2023-11-07T08:08:17.707Z,80.09
2023-11-07T08:10:50.068Z,78.56
2023-11-07T08:13:18.457Z,77.78
2023-11-07T08:15:46.418Z,75.62
2023-11-07T08:18:13.870Z,75.53
2023-11-07T08:20:41.459Z,75.06
2023-11-07T08:23:08.777Z,74.88
2023-11-07T08:25:36.353Z,74.41
2023-11-07T08:28:10.966Z,75.01
2023-11-07T08:30:39.541Z,73.57
2023-11-07T08:33:09.076Z,73.58
2023-11-07T08:35:38.185Z,73.74
2023-11-07T08:38:05.470Z,72.02
2023-11-07T08:40:32.913Z,73.35
2023-11-07T08:43:01.554Z,73.13
2023-11-07T08:45:30.073Z,74.51
2023-11-07T08:47:58.381Z,74.80
2023-11-07T08:50:28.760Z,72.82
2023-11-07T08:52:58.789Z,72.81
2023-11-07T08:55:27.589Z,72.54
2023-11-07T08:57:55.576Z,71.99
2023-11-07T09:00:23.638Z,71.55
2023-11-07T09:02:52.786Z,71.78
2023-11-07T09:05:20.333Z,71.62
2023-11-07T09:07:48.247Z,71.00
2023-11-07T09:10:15.867Z,71.45
2023-11-07T09:12:43.843Z,70.96
2023-11-07T09:15:15.096Z,70.09
2023-11-07T09:17:44.055Z,69.47
2023-11-07T09:20:16.089Z,70.11
2023-11-07T09:22:44.768Z,70.38
2023-11-07T09:25:15.712Z,71.23
2023-11-07T09:27:43.203Z,72.34
2023-11-07T09:30:12.982Z,72.64
2023-11-07T09:32:43.883Z,73.06
2023-11-07T09:35:12.624Z,73.55
2023-11-07T09:37:43.459Z,73.84
2023-11-07T09:40:12.528Z,74.27
2023-11-07T09:42:46.178Z,73.57
2023-11-07T09:45:16.631Z,73.77
2023-11-07T09:47:49.462Z,73.82
2023-11-07T09:50:21.667Z,75.09
2023-11-07T09:52:51.155Z,74.90
2023-11-07T09:55:18.677Z,74.41
2023-11-07T09:57:51.343Z,74.52
2023-11-07T10:00:22.497Z,74.91
2023-11-07T10:02:52.802Z,74.71
2023-11-07T10:05:26.387Z,74.67
2023-11-07T10:07:54.848Z,72.76
2023-11-07T10:10:22.271Z,72.41
2023-11-07T10:12:52.182Z,71.66
2023-11-07T10:15:26.322Z,72.11
2023-11-07T10:18:05.977Z,71.73
2023-11-07T10:20:36.383Z,71.49
2023-11-07T10:23:03.944Z,70.55
2023-11-07T10:25:32.458Z,70.20
2023-11-07T10:28:04.778Z,70.14
2023-11-07T10:30:42.858Z,70.15
2023-11-07T10:33:11.410Z,71.04
2023-11-07T10:35:56.472Z,70.45
2023-11-07T10:38:24.429Z,70.42
2023-11-07T10:40:52.515Z,71.12
2023-11-07T10:43:39.978Z,72.38
2023-11-07T10:46:11.674Z,72.82
2023-11-07T10:48:41.185Z,74.31
2023-11-07T10:51:11.026Z,73.83
2023-11-07T10:53:40.068Z,73.81
2023-11-07T10:56:14.858Z,73.99
2023-11-07T10:59:07.433Z,74.01
2023-11-07T11:01:38.269Z,74.29
2023-11-07T11:04:10.230Z,74.99
2023-11-07T11:06:38.688Z,75.11
2023-11-07T11:09:12.772Z,75.37
2023-11-07T11:11:43.322Z,75.43
2023-11-07T11:14:11.132Z,75.63
2023-11-07T11:16:40.563Z,74.62
2023-11-07T11:19:12.103Z,74.98
2023-11-07T11:21:45.516Z,74.81
2023-11-07T11:24:22.883Z,75.55
2023-11-07T11:27:04.918Z,74.93
2023-11-07T11:29:33.618Z,75.79
2023-11-07T11:32:30.610Z,74.62
2023-11-07T11:35:18.934Z,73.71
2023-11-07T11:38:15.133Z,73.04
2023-11-07T11:40:52.177Z,72.91
2023-11-07T11:43:22.519Z,73.60
2023-11-07T11:46:00.198Z,73.50
2023-11-07T11:48:52.739Z,73.90
2023-11-07T11:51:40.742Z,72.75
2023-11-07T11:54:12.453Z,72.43
2023-11-07T11:56:52.065Z,72.77
2023-11-07T11:59:20.553Z,71.01
2023-11-07T12:01:48.778Z,70.47
2023-11-07T12:04:37.204Z,69.64
2023-11-07T12:07:25.147Z,71.49
2023-11-07T12:10:01.592Z,71.94
2023-11-07T12:12:28.873Z,72.74
2023-11-07T12:14:56.252Z,73.36
2023-11-07T12:17:25.421Z,74.07
2023-11-07T12:20:08.691Z,75.61
2023-11-07T12:22:36.439Z,76.34
2023-11-07T12:25:13.349Z,75.48
2023-11-07T12:27:42.692Z,76.23
2023-11-07T12:30:18.499Z,76.69
2023-11-07T12:32:46.516Z,76.93
2023-11-07T12:35:22.468Z,77.27
2023-11-07T12:37:52.004Z,77.82
2023-11-07T12:40:19.997Z,78.65
2023-11-07T12:42:54.573Z,79.03
2023-11-07T12:45:33.402Z,77.81
2023-11-07T12:48:05.504Z,76.94
2023-11-07T12:50:40.828Z,77.06
2023-11-07T12:53:08.709Z,77.96
2023-11-07T12:55:38.911Z,77.25
2023-11-07T12:58:08.650Z,77.16
2023-11-07T13:00:55.901Z,76.85
2023-11-07T13:03:25.081Z,77.69
2023-11-07T13:06:04.353Z,78.36
2023-11-07T13:08:39.354Z,78.36
2023-11-07T13:11:13.752Z,77.96
2023-11-07T13:13:43.293Z,78.31
2023-11-07T13:16:10.905Z,78.43
2023-11-07T13:18:39.481Z,78.02
2023-11-07T13:21:11.294Z,78.67
2023-11-07T13:23:39.573Z,78.71
2023-11-07T13:26:10.557Z,79.76
2023-11-07T13:28:40.094Z,79.12
2023-11-07T13:31:07.692Z,79.31
2023-11-07T13:33:36.649Z,79.49
2023-11-07T13:36:05.338Z,79.06
2023-11-07T13:38:32.900Z,79.47
2023-11-07T13:41:00.337Z,79.35
2023-11-07T13:43:28.459Z,79.57
2023-11-07T13:45:55.837Z,79.17
2023-11-07T13:48:26.022Z,79.89
2023-11-07T13:50:53.663Z,79.04
2023-11-07T13:53:21.145Z,80.49
2023-11-07T13:55:48.464Z,81.32
2023-11-07T13:58:16.007Z,81.54
2023-11-07T14:00:43.563Z,82.22
2023-11-07T14:03:11.068Z,82.47
2023-11-07T14:05:38.498Z,83.84
2023-11-07T14:08:06.313Z,85.06
2023-11-07T14:10:33.670Z,84.56
2023-11-07T14:13:01.630Z,84.83
2023-11-07T14:15:36.539Z,85.35
2023-11-07T14:18:16.685Z,86.45
2023-11-07T14:20:53.123Z,87.29
2023-11-07T14:23:20.470Z,88.14
2023-11-07T14:25:48.325Z,88.11
2023-11-07T14:28:15.625Z,88.54
2023-11-07T14:30:46.559Z,88.32
2023-11-07T14:33:17.062Z,88.39
2023-11-07T14:35:47.163Z,89.61
2023-11-07T14:38:17.434Z,90.69
2023-11-07T14:40:48.437Z,90.68
2023-11-07T14:43:17.656Z,90.71
2023-11-07T14:45:46.022Z,92.46
2023-11-07T14:48:15.815Z,93.79
2023-11-07T14:50:44.732Z,93.98
2023-11-07T14:53:12.270Z,94.68
2023-11-07T14:55:40.250Z,96.06
2023-11-07T14:58:08.433Z,96.57
2023-11-07T15:00:41.765Z,97.92
2023-11-07T15:03:11.943Z,99.10
2023-11-07T15:05:43.211Z,99.57
2023-11-07T15:08:12.712Z,100.00
2023-11-07T15:10:40.102Z,100.00
2023-11-07T15:13:08.062Z,100.00
2023-11-07T15:15:36.215Z,100.00
2023-11-07T15:18:05.706Z,100.00
2023-11-07T15:20:33.980Z,100.00
2023-11-07T15:23:04.038Z,100.00
2023-11-07T15:25:34.859Z,100.00
2023-11-07T15:28:03.361Z,100.00
2023-11-07T15:30:32.245Z,100.00
2023-11-07T15:33:02.585Z,100.00
2023-11-07T15:35:38.030Z,100.00
2023-11-07T15:38:09.736Z,100.00
2023-11-07T15:40:37.850Z,100.00
2023-11-07T15:43:06.513Z,100.00
2023-11-07T15:45:34.964Z,100.00
2023-11-07T15:48:09.451Z,100.00
2023-11-07T15:50:38.607Z,100.00
2023-11-07T15:53:08.947Z,100.00
2023-11-07T15:55:38.610Z,100.00
2023-11-07T15:58:06.334Z,100.00
2023-11-07T16:03:59.487Z,100.00
2023-11-07T16:06:28.606Z,100.00
2023-11-07T16:08:55.989Z,100.00
2023-11-07T16:11:24.529Z,100.00
2023-11-07T16:13:51.783Z,100.00
2023-11-07T16:16:19.063Z,100.00
2023-11-07T16:18:46.418Z,100.00
2023-11-07T16:21:14.244Z,100.00
2023-11-07T16:23:42.756Z,100.00
2023-11-07T16:26:12.557Z,100.00
2023-11-07T16:28:41.330Z,100.00
2023-11-07T16:31:08.584Z,100.00
2023-11-07T16:33:36.019Z,100.00
2023-11-07T16:36:03.652Z,100.00
2023-11-07T16:38:30.952Z,100.00
2023-11-07T16:40:58.269Z,100.00
2023-11-07T16:43:25.575Z,100.00
2023-11-07T16:45:52.991Z,100.00
2023-11-07T16:48:20.172Z,100.00
2023-11-07T16:50:49.387Z,100.00
2023-11-07T16:53:17.118Z,100.00
2023-11-07T16:55:44.358Z,100.00
2023-11-07T16:58:13.485Z,100.00
2023-11-07T17:00:42.098Z,100.00
2023-11-07T17:03:09.578Z,100.00
2023-11-07T17:05:37.156Z,100.00
2023-11-07T17:08:07.839Z,100.00
2023-11-07T17:10:35.160Z,100.00
2023-11-07T17:13:02.795Z,100.00
2023-11-07T17:15:29.983Z,100.00
2023-11-07T17:17:57.552Z,100.00
2023-11-07T17:20:27.602Z,100.00
2023-11-07T17:22:54.962Z,100.00
2023-11-07T17:25:22.574Z,100.00
2023-11-07T17:27:50.018Z,100.00
2023-11-07T17:30:22.149Z,100.00
2023-11-07T17:32:49.841Z,100.00
2023-11-07T17:35:17.065Z,100.00
2023-11-07T17:37:48.691Z,100.00
2023-11-07T17:40:16.724Z,100.00
2023-11-07T17:42:45.613Z,100.00
2023-11-07T17:45:14.739Z,100.00
2023-11-07T17:47:42.839Z,100.00
2023-11-07T17:50:10.377Z,100.00
2023-11-07T17:52:37.983Z,100.00
2023-11-07T17:55:05.705Z,100.00
2023-11-07T17:57:33.578Z,100.00
2023-11-07T18:00:00.993Z,100.00
2023-11-07T18:02:29.046Z,100.00
2023-11-07T18:04:56.349Z,100.00
2023-11-07T18:07:23.783Z,100.00
2023-11-07T18:09:51.373Z,100.00
2023-11-07T18:12:21.100Z,100.00
2023-11-07T18:14:48.513Z,100.00
2023-11-07T18:17:15.872Z,100.00
2023-11-07T18:19:43.413Z,100.00
2023-11-07T18:22:11.495Z,100.00
2023-11-07T18:24:38.773Z,100.00
2023-11-07T18:27:06.452Z,100.00
2023-11-07T18:29:33.709Z,100.00
2023-11-07T18:32:02.620Z,100.00
2023-11-07T18:34:30.036Z,100.00
2023-11-07T18:37:05.191Z,100.00
2023-11-07T18:39:40.930Z,100.00
2023-11-07T18:42:09.731Z,100.00
2023-11-07T18:44:42.103Z,100.00
2023-11-07T18:47:09.974Z,100.00
2023-11-07T18:49:37.447Z,100.00
2023-11-07T18:52:05.113Z,100.00
2023-11-07T18:54:32.616Z,100.00
2023-11-07T18:57:00.149Z,100.00
2023-11-07T18:59:34.588Z,100.00
2023-11-07T19:02:08.246Z,100.00
2023-11-07T19:04:39.139Z,100.00
2023-11-07T19:07:08.594Z,100.00
2023-11-07T19:09:36.235Z,100.00
2023-11-07T19:12:04.514Z,100.00
2023-11-07T19:14:32.085Z,100.00
2023-11-07T19:17:00.213Z,100.00
2023-11-07T19:19:28.569Z,100.00
2023-11-07T19:21:56.829Z,100.00
2023-11-07T19:24:24.480Z,100.00
2023-11-07T19:26:53.702Z,100.00
2023-11-07T19:29:23.932Z,100.00
2023-11-07T19:31:52.875Z,100.00
2023-11-07T19:34:21.578Z,100.00
2023-11-07T19:36:54.517Z,100.00
2023-11-07T19:39:22.712Z,100.00
2023-11-07T19:41:52.191Z,100.00
2023-11-07T19:44:20.974Z,100.00
2023-11-07T19:46:48.210Z,100.00
2023-11-07T19:49:15.695Z,100.00
2023-11-07T19:51:43.246Z,100.00
2023-11-07T19:54:12.260Z,100.00
2023-11-07T19:56:40.635Z,100.00
2023-11-07T19:59:10.772Z,100.00
2023-11-07T20:01:39.784Z,100.00
2023-11-07T20:04:07.391Z,100.00
2023-11-07T20:06:34.904Z,100.00
2023-11-07T20:09:02.213Z,100.00
2023-11-07T20:11:30.581Z,100.00
2023-11-07T20:13:57.768Z,100.00
2023-11-07T20:16:25.417Z,100.00
2023-11-07T20:18:53.999Z,100.00
2023-11-07T20:21:21.489Z,100.00
2023-11-07T20:23:48.771Z,100.00
2023-11-07T20:26:18.860Z,100.00
2023-11-07T20:28:51.158Z,100.00
2023-11-07T20:31:20.125Z,100.00
2023-11-07T20:33:49.887Z,100.00
2023-11-07T20:36:19.930Z,100.00
2023-11-07T20:38:48.975Z,100.00
2023-11-07T20:41:21.467Z,100.00
2023-11-07T20:43:51.373Z,100.00
2023-11-07T20:46:31.141Z,100.00
2023-11-07T20:49:06.964Z,100.00
2023-11-07T20:51:36.556Z,100.00
2023-11-07T20:54:05.246Z,100.00
2023-11-07T20:56:34.232Z,100.00
2023-11-07T20:59:02.002Z,100.00
2023-11-07T21:01:29.500Z,100.00
2023-11-07T21:03:57.297Z,100.00
2023-11-07T21:06:25.326Z,100.00
2023-11-07T21:08:53.992Z,100.00
2023-11-07T21:11:24.427Z,100.00
2023-11-07T21:13:52.899Z,100.00
2023-11-07T21:16:20.388Z,100.00
2023-11-07T21:18:49.249Z,100.00
2023-11-07T21:21:17.475Z,100.00
2023-11-07T21:23:45.025Z,100.00
2023-11-07T21:26:13.710Z,100.00
2023-11-07T21:28:41.986Z,100.00
2023-11-07T21:31:10.233Z,100.00
2023-11-07T21:33:40.585Z,100.00
2023-11-07T21:36:08.867Z,100.00
2023-11-07T21:38:36.464Z,100.00
2023-11-07T21:41:03.870Z,100.00
2023-11-07T21:43:31.269Z,100.00
2023-11-07T21:45:58.481Z,100.00
2023-11-07T21:48:26.281Z,100.00
2023-11-07T21:50:53.906Z,100.00
2023-11-07T21:53:22.827Z,100.00
2023-11-07T21:55:50.431Z,100.00
2023-11-07T21:58:19.232Z,100.00
2023-11-07T22:00:46.573Z,100.00
2023-11-07T22:03:14.308Z,100.00
2023-11-07T22:05:41.791Z,100.00
2023-11-07T22:08:09.091Z,100.00
2023-11-07T22:10:36.896Z,100.00
2023-11-07T22:13:05.011Z,100.00
2023-11-07T22:15:33.560Z,100.00
2023-11-07T22:18:01.132Z,100.00
2023-11-07T22:20:29.303Z,100.00
2023-11-07T22:22:57.377Z,100.00
2023-11-07T22:25:24.575Z,100.00
2023-11-07T22:27:52.382Z,100.00
2023-11-07T22:30:19.577Z,100.00
2023-11-07T22:32:47.444Z,100.00
2023-11-07T22:35:15.776Z,100.00
2023-11-07T22:37:43.379Z,100.00
2023-11-07T22:40:11.248Z,100.00
2023-11-07T22:42:41.745Z,100.00
2023-11-07T22:45:10.355Z,100.00
2023-11-07T22:47:38.187Z,100.00
2023-11-07T22:50:09.145Z,100.00
2023-11-07T22:52:36.555Z,100.00
2023-11-07T22:55:04.334Z,100.00
2023-11-07T22:57:31.748Z,100.00
2023-11-07T22:59:59.085Z,100.00
2023-11-07T23:02:27.149Z,100.00
2023-11-07T23:04:54.549Z,100.00
2023-11-07T23:07:22.572Z,100.00
2023-11-07T23:09:50.617Z,100.00
2023-11-07T23:12:18.200Z,100.00
2023-11-07T23:14:46.769Z,100.00
2023-11-07T23:17:14.901Z,100.00
2023-11-07T23:19:42.861Z,100.00
2023-11-07T23:22:13.639Z,100.00
2023-11-07T23:24:44.939Z,100.00
2023-11-07T23:27:15.693Z,100.00
2023-11-07T23:29:45.764Z,100.00
2023-11-07T23:32:13.288Z,100.00
2023-11-07T23:34:41.595Z,100.00
2023-11-07T23:37:09.724Z,100.00
2023-11-07T23:39:36.989Z,100.00
2023-11-07T23:42:04.432Z,100.00
2023-11-07T23:44:31.686Z,100.00
2023-11-07T23:46:59.127Z,100.00
2023-11-07T23:49:26.330Z,100.00
2023-11-07T23:51:54.700Z,100.00
2023-11-07T23:54:24.220Z,100.00
2023-11-07T23:56:52.041Z,100.00
2023-11-07T23:59:19.468Z,100.00
